Time;durP1;ratioP1;P1;durP2;ratioP2;P2;SDS_P1;SDS_P2;PMS_P1;PMS_P2;Temp;Humidity;BMP_temperature;BMP_pressure;BME280_temperature;BME280_humidity;BME280_pressure;Samples;Min_cycle;Max_cycle;Signal;HPM_P1;HPM_P2
2020/12/27 00:01:29;;;;;;;7.03;2.95;;;;;;;;;;4953780;28;20055;-81
2020/12/27 00:03:57;;;;;;;6.82;3.25;;;;;;;;;;4949354;28;20133;-81
2020/12/27 00:06:28;;;;;;;5.80;2.78;;;;;;;;;;4964587;28;20941;-81
2020/12/27 00:08:55;;;;;;;8.27;3.55;;;;;;;;;;4951589;28;20086;-81
2020/12/27 00:11:22;;;;;;;4.57;3.00;;;;;;;;;;4964147;28;20055;-82
2020/12/27 00:13:50;;;;;;;6.25;3.33;;;;;;;;;;4966212;28;20075;-82
2020/12/27 00:16:23;;;;;;;6.80;2.75;;;;;;;;;;4962612;28;20039;-81
2020/12/27 00:18:50;;;;;;;8.18;2.67;;;;;;;;;;4965006;28;20055;-82
2020/12/27 00:21:17;;;;;;;8.88;3.55;;;;;;;;;;4945802;28;20141;-81
2020/12/27 00:23:44;;;;;;;9.52;3.08;;;;;;;;;;4962653;28;20705;-82
2020/12/27 00:26:13;;;;;;;6.57;2.65;;;;;;;;;;4964944;28;20056;-81
2020/12/27 00:28:40;;;;;;;6.55;3.25;;;;;;;;;;4964230;28;20452;-80
2020/12/27 00:31:11;;;;;;;6.28;2.78;;;;;;;;;;4959934;28;20454;-80
2020/12/27 00:33:38;;;;;;;6.80;3.38;;;;;;;;;;4967179;28;20051;-81
2020/12/27 00:36:04;;;;;;;6.18;3.25;;;;;;;;;;4960939;28;20489;-80
2020/12/27 00:38:31;;;;;;;5.50;3.10;;;;;;;;;;4964035;28;20044;-81
2020/12/27 00:40:58;;;;;;;4.70;2.88;;;;;;;;;;4947870;28;20051;-81
2020/12/27 00:43:25;;;;;;;9.80;3.80;;;;;;;;;;4948913;28;20478;-81
2020/12/27 00:45:53;;;;;;;10.63;3.55;;;;;;;;;;4947137;28;20055;-81
2020/12/27 00:48:19;;;;;;;7.57;2.78;;;;;;;;;;4964926;28;20059;-81
2020/12/27 00:50:49;;;;;;;12.23;3.92;;;;;;;;;;4968761;28;20595;-81
2020/12/27 00:53:23;;;;;;;6.13;3.40;;;;;;;;;;4954671;28;20054;-80
2020/12/27 00:55:51;;;;;;;6.80;3.83;;;;;;;;;;4970569;28;20051;-81
2020/12/27 00:58:18;;;;;;;5.78;2.83;;;;;;;;;;4969458;28;20083;-81
2020/12/27 01:00:44;;;;;;;5.50;2.95;;;;;;;;;;4949757;28;20496;-81
2020/12/27 01:03:11;;;;;;;5.45;2.88;;;;;;;;;;4965013;28;20095;-81
2020/12/27 01:05:38;;;;;;;7.88;3.08;;;;;;;;;;4961960;28;20090;-81
2020/12/27 01:08:04;;;;;;;4.82;3.28;;;;;;;;;;4948382;28;20114;-80
2020/12/27 01:10:31;;;;;;;6.05;2.95;;;;;;;;;;4950906;28;20063;-81
2020/12/27 01:12:58;;;;;;;9.77;3.25;;;;;;;;;;4952080;28;20381;-81
2020/12/27 01:15:24;;;;;;;8.95;3.78;;;;;;;;;;4970291;28;20130;-79
2020/12/27 01:17:51;;;;;;;5.85;2.80;;;;;;;;;;4948524;28;20078;-80
2020/12/27 01:20:20;;;;;;;7.50;3.40;;;;;;;;;;4967593;28;20084;-81
2020/12/27 01:22:46;;;;;;;6.65;3.28;;;;;;;;;;4948361;28;20565;-81
2020/12/27 01:25:15;;;;;;;8.57;3.50;;;;;;;;;;4970908;28;20057;-80
2020/12/27 01:27:42;;;;;;;10.80;3.30;;;;;;;;;;4968190;28;20047;-81
2020/12/27 01:30:09;;;;;;;6.88;3.22;;;;;;;;;;4968877;28;20200;-81
2020/12/27 01:32:36;;;;;;;9.02;3.17;;;;;;;;;;4965166;28;20086;-80
2020/12/27 01:35:03;;;;;;;9.63;3.30;;;;;;;;;;4968017;28;20082;-81
2020/12/27 01:37:29;;;;;;;6.78;2.85;;;;;;;;;;4967424;28;20074;-80
2020/12/27 01:39:56;;;;;;;5.80;3.20;;;;;;;;;;4968800;28;20071;-81
2020/12/27 01:42:32;;;;;;;6.80;3.20;;;;;;;;;;4966202;28;20752;-81
2020/12/27 01:44:58;;;;;;;8.48;3.25;;;;;;;;;;4970271;28;20051;-80
2020/12/27 01:47:28;;;;;;;6.38;2.80;;;;;;;;;;4951004;28;20086;-80
2020/12/27 01:49:55;;;;;;;5.72;3.08;;;;;;;;;;4968597;28;20553;-80
2020/12/27 01:52:24;;;;;;;7.57;3.15;;;;;;;;;;4965864;28;20055;-80
2020/12/27 01:54:51;;;;;;;8.13;3.63;;;;;;;;;;4951293;28;20079;-80
2020/12/27 01:57:21;;;;;;;6.93;3.30;;;;;;;;;;4952317;28;20055;-80
2020/12/27 01:59:48;;;;;;;5.82;3.40;;;;;;;;;;4968055;28;20127;-80
2020/12/27 02:02:17;;;;;;;8.80;3.38;;;;;;;;;;4965981;28;20062;-81
2020/12/27 02:04:44;;;;;;;7.90;3.30;;;;;;;;;;4949707;28;20063;-80
2020/12/27 02:07:12;;;;;;;5.95;4.13;;;;;;;;;;4966540;28;20146;-81
2020/12/27 02:09:43;;;;;;;5.05;3.20;;;;;;;;;;4966647;28;20051;-79
2020/12/27 02:15:32;;;;;;;8.60;3.25;;;;;;;;;;4970356;23;20090;-87
2020/12/27 02:17:58;;;;;;;7.55;3.10;;;;;;;;;;4968095;28;23414;-86
2020/12/27 02:20:25;;;;;;;12.13;3.85;;;;;;;;;;4971406;28;20054;-85
2020/12/27 02:22:52;;;;;;;10.40;3.67;;;;;;;;;;4970601;28;21835;-86
2020/12/27 02:25:19;;;;;;;8.60;3.78;;;;;;;;;;4970762;28;20050;-85
2020/12/27 02:27:45;;;;;;;7.18;3.40;;;;;;;;;;4966799;28;20090;-85
2020/12/27 02:30:12;;;;;;;7.18;3.50;;;;;;;;;;4971681;28;20105;-86
2020/12/27 02:32:38;;;;;;;8.93;3.88;;;;;;;;;;4968771;28;20472;-86
2020/12/27 02:35:05;;;;;;;7.75;3.30;;;;;;;;;;4967431;28;20074;-85
2020/12/27 02:37:32;;;;;;;7.55;3.60;;;;;;;;;;4972219;28;20058;-85
2020/12/27 02:40:00;;;;;;;7.78;3.60;;;;;;;;;;4966922;28;20077;-85
2020/12/27 02:42:27;;;;;;;9.55;4.15;;;;;;;;;;4968647;28;20550;-84
2020/12/27 02:47:31;;;;;;;11.80;4.30;;;;;;;;;;4966855;28;20560;-85
2020/12/27 02:50:00;;;;;;;9.48;3.92;;;;;;;;;;4969747;28;20051;-85
2020/12/27 02:52:26;;;;;;;8.68;3.70;;;;;;;;;;4970889;28;20058;-86
2020/12/27 02:54:53;;;;;;;11.20;4.55;;;;;;;;;;4972338;28;20118;-86
2020/12/27 02:57:20;;;;;;;12.00;5.47;;;;;;;;;;4966129;28;20051;-86
2020/12/27 02:59:46;;;;;;;9.45;4.93;;;;;;;;;;4970034;28;20136;-84
2020/12/27 03:02:13;;;;;;;7.78;3.90;;;;;;;;;;4970096;28;20057;-85
2020/12/27 03:04:41;;;;;;;10.82;5.07;;;;;;;;;;4960559;28;20074;-85
2020/12/27 03:07:08;;;;;;;9.95;4.85;;;;;;;;;;4961398;28;20089;-86
2020/12/27 03:09:34;;;;;;;10.15;5.13;;;;;;;;;;4960881;28;20109;-85
2020/12/27 03:12:01;;;;;;;9.40;4.32;;;;;;;;;;4965112;28;20135;-85
2020/12/27 03:14:28;;;;;;;10.50;4.30;;;;;;;;;;4965268;28;20039;-85
2020/12/27 03:16:54;;;;;;;9.82;4.78;;;;;;;;;;4963507;28;20094;-86
2020/12/27 03:19:21;;;;;;;9.52;4.32;;;;;;;;;;4980289;28;20173;-85
2020/12/27 03:21:48;;;;;;;9.18;4.25;;;;;;;;;;4962719;28;20118;-84
2020/12/27 03:24:14;;;;;;;10.60;4.45;;;;;;;;;;4960299;28;20680;-84
2020/12/27 03:26:41;;;;;;;8.30;4.32;;;;;;;;;;4967003;28;20476;-85
2020/12/27 03:29:08;;;;;;;10.27;4.20;;;;;;;;;;4959570;28;20070;-84
2020/12/27 03:31:35;;;;;;;9.55;3.55;;;;;;;;;;4961746;28;20137;-85
2020/12/27 03:34:01;;;;;;;9.50;3.92;;;;;;;;;;4960856;28;20142;-85
2020/12/27 03:36:44;;;;;;;11.38;4.50;;;;;;;;;;4963046;28;20090;-84
2020/12/27 03:39:11;;;;;;;9.57;4.50;;;;;;;;;;4965425;28;20058;-85
2020/12/27 03:41:38;;;;;;;7.85;4.13;;;;;;;;;;4968365;28;20532;-85
2020/12/27 03:44:05;;;;;;;9.73;4.13;;;;;;;;;;4965812;28;20054;-84
2020/12/27 03:46:32;;;;;;;9.10;4.28;;;;;;;;;;4967629;28;20319;-84
2020/12/27 03:48:59;;;;;;;10.90;4.43;;;;;;;;;;4981861;28;20055;-84
2020/12/27 03:51:26;;;;;;;8.48;4.40;;;;;;;;;;4970475;28;20085;-84
2020/12/27 03:53:52;;;;;;;7.03;3.50;;;;;;;;;;4968137;28;20043;-85
2020/12/27 03:56:22;;;;;;;8.93;4.03;;;;;;;;;;4967553;28;20105;-85
2020/12/27 03:58:51;;;;;;;9.10;3.88;;;;;;;;;;4971333;28;20047;-85
2020/12/27 04:01:18;;;;;;;11.52;4.15;;;;;;;;;;4981735;28;20058;-84
2020/12/27 04:03:45;;;;;;;11.30;4.10;;;;;;;;;;4966936;28;20109;-85
2020/12/27 04:06:12;;;;;;;8.70;3.70;;;;;;;;;;4966806;28;21628;-85
2020/12/27 04:08:39;;;;;;;9.52;4.45;;;;;;;;;;4967048;28;20054;-84
2020/12/27 04:11:05;;;;;;;8.82;3.92;;;;;;;;;;4980948;28;20059;-85
2020/12/27 04:13:35;;;;;;;10.70;3.40;;;;;;;;;;4969731;28;20094;-86
2020/12/27 04:16:03;;;;;;;8.90;3.75;;;;;;;;;;4967548;28;20554;-86
2020/12/27 04:18:29;;;;;;;11.95;4.40;;;;;;;;;;4966843;28;20066;-86
2020/12/27 04:20:56;;;;;;;9.10;3.80;;;;;;;;;;4964141;28;20078;-86
2020/12/27 04:23:26;;;;;;;6.68;3.47;;;;;;;;;;4966339;28;20520;-84
2020/12/27 04:25:52;;;;;;;7.45;3.35;;;;;;;;;;4967778;28;20082;-85
2020/12/27 04:28:19;;;;;;;10.25;3.88;;;;;;;;;;4968278;28;20082;-83
2020/12/27 04:30:45;;;;;;;7.03;4.00;;;;;;;;;;4966519;28;20042;-83
2020/12/27 04:33:13;;;;;;;9.73;3.88;;;;;;;;;;4970128;28;20043;-84
2020/12/27 04:35:39;;;;;;;7.18;3.92;;;;;;;;;;4970188;28;20050;-83
2020/12/27 04:38:09;;;;;;;5.75;3.28;;;;;;;;;;4969016;28;20050;-84
2020/12/27 04:40:41;;;;;;;10.65;4.03;;;;;;;;;;4968385;28;20129;-84
2020/12/27 04:43:10;;;;;;;7.97;3.85;;;;;;;;;;4965009;28;20440;-82
2020/12/27 04:45:37;;;;;;;9.57;3.72;;;;;;;;;;4967034;28;20146;-83
2020/12/27 04:48:04;;;;;;;6.97;3.78;;;;;;;;;;4965242;28;20570;-84
2020/12/27 04:50:31;;;;;;;8.60;3.28;;;;;;;;;;4967397;28;20692;-84
2020/12/27 04:53:02;;;;;;;7.82;3.50;;;;;;;;;;4965444;28;20074;-83
2020/12/27 04:55:29;;;;;;;6.97;3.67;;;;;;;;;;4961772;28;20043;-83
2020/12/27 04:58:03;;;;;;;7.32;3.88;;;;;;;;;;4964617;28;20054;-83
2020/12/27 05:00:33;;;;;;;7.40;3.55;;;;;;;;;;4982161;28;20073;-83
2020/12/27 05:03:00;;;;;;;6.63;3.25;;;;;;;;;;4967259;28;20420;-83
2020/12/27 05:05:30;;;;;;;6.18;3.17;;;;;;;;;;4969135;28;20500;-83
2020/12/27 05:07:57;;;;;;;9.73;3.30;;;;;;;;;;4981131;28;20109;-83
2020/12/27 05:10:29;;;;;;;7.03;3.30;;;;;;;;;;4967717;28;20054;-84
2020/12/27 05:12:55;;;;;;;10.48;3.60;;;;;;;;;;4969116;28;20058;-84
2020/12/27 05:15:25;;;;;;;7.28;3.53;;;;;;;;;;4969430;28;20055;-85
2020/12/27 05:17:52;;;;;;;6.40;3.13;;;;;;;;;;4967892;28;20042;-85
2020/12/27 05:20:19;;;;;;;7.93;3.63;;;;;;;;;;4968269;28;20082;-86
2020/12/27 05:22:47;;;;;;;7.28;3.70;;;;;;;;;;4983609;28;20055;-85
2020/12/27 05:25:15;;;;;;;10.20;3.85;;;;;;;;;;4968534;28;20079;-85
2020/12/27 05:27:44;;;;;;;12.70;3.58;;;;;;;;;;4966841;28;20657;-86
2020/12/27 05:30:11;;;;;;;9.45;3.30;;;;;;;;;;4968225;28;20054;-85
2020/12/27 05:32:38;;;;;;;6.72;3.33;;;;;;;;;;4966096;28;20058;-86
2020/12/27 05:35:11;;;;;;;7.72;3.58;;;;;;;;;;4965565;28;20039;-85
2020/12/27 05:37:40;;;;;;;9.65;3.33;;;;;;;;;;4969061;28;20050;-86
2020/12/27 05:40:07;;;;;;;9.98;3.97;;;;;;;;;;4973561;28;20043;-86
2020/12/27 05:42:35;;;;;;;7.65;3.35;;;;;;;;;;4966791;28;20694;-79
2020/12/27 05:45:11;;;;;;;9.73;3.65;;;;;;;;;;4968133;28;20063;-79
2020/12/27 05:47:44;;;;;;;7.95;3.65;;;;;;;;;;4963392;28;21462;-79
2020/12/27 05:50:14;;;;;;;5.60;3.20;;;;;;;;;;4966620;28;20062;-78
2020/12/27 05:52:45;;;;;;;9.85;3.70;;;;;;;;;;4961711;28;20134;-79
2020/12/27 05:55:19;;;;;;;7.50;3.95;;;;;;;;;;4963066;28;20093;-78
2020/12/27 05:57:53;;;;;;;8.38;3.60;;;;;;;;;;4966127;28;20079;-78
2020/12/27 06:00:21;;;;;;;11.07;3.08;;;;;;;;;;4966544;28;20070;-78
2020/12/27 06:02:56;;;;;;;7.57;3.35;;;;;;;;;;4963972;28;20102;-79
2020/12/27 06:05:41;;;;;;;8.52;3.70;;;;;;;;;;4964711;28;20047;-78
2020/12/27 06:08:30;;;;;;;6.97;3.30;;;;;;;;;;4981937;28;20046;-78
2020/12/27 06:11:07;;;;;;;10.48;3.58;;;;;;;;;;4979767;28;20083;-77
2020/12/27 06:13:46;;;;;;;8.15;3.85;;;;;;;;;;4966062;28;20086;-78
2020/12/27 06:16:13;;;;;;;5.90;3.40;;;;;;;;;;4963983;28;20563;-78
2020/12/27 06:18:40;;;;;;;5.57;2.80;;;;;;;;;;4964719;28;20097;-78
2020/12/27 06:21:08;;;;;;;8.88;2.97;;;;;;;;;;4967474;28;20051;-79
2020/12/27 06:23:36;;;;;;;9.25;3.78;;;;;;;;;;4966723;28;20562;-79
2020/12/27 06:26:03;;;;;;;7.78;3.58;;;;;;;;;;4962332;28;20125;-80
2020/12/27 06:28:30;;;;;;;12.75;3.40;;;;;;;;;;4957222;28;20730;-80
2020/12/27 06:31:03;;;;;;;9.20;3.53;;;;;;;;;;4964626;28;20046;-79
2020/12/27 06:33:34;;;;;;;6.30;3.17;;;;;;;;;;4989045;28;20050;-80
2020/12/27 06:36:02;;;;;;;7.47;3.25;;;;;;;;;;4963866;28;20398;-80
2020/12/27 06:38:39;;;;;;;6.43;2.92;;;;;;;;;;4962263;28;20058;-80
2020/12/27 06:41:10;;;;;;;7.97;2.90;;;;;;;;;;4967248;28;20544;-79
2020/12/27 06:43:41;;;;;;;11.65;3.40;;;;;;;;;;4967756;28;20106;-79
2020/12/27 06:46:21;;;;;;;4.93;2.80;;;;;;;;;;4967488;28;20694;-80
2020/12/27 06:48:48;;;;;;;8.98;2.65;;;;;;;;;;4977000;28;20051;-80
2020/12/27 06:51:34;;;;;;;6.85;2.65;;;;;;;;;;4965777;28;20137;-80
2020/12/27 06:54:03;;;;;;;6.32;2.65;;;;;;;;;;4963063;28;20047;-78
2020/12/27 06:56:45;;;;;;;7.78;2.70;;;;;;;;;;4966893;28;20448;-79
2020/12/27 06:59:23;;;;;;;5.72;2.55;;;;;;;;;;4965329;28;20055;-79
2020/12/27 07:02:04;;;;;;;7.47;2.78;;;;;;;;;;4989219;28;20102;-79
2020/12/27 07:04:36;;;;;;;8.90;2.78;;;;;;;;;;4962670;28;20150;-79
2020/12/27 07:07:03;;;;;;;11.93;2.58;;;;;;;;;;4962211;28;20202;-79
2020/12/27 07:09:37;;;;;;;6.97;3.03;;;;;;;;;;4966247;28;20055;-79
2020/12/27 07:12:05;;;;;;;7.22;2.88;;;;;;;;;;4967779;28;20581;-79
2020/12/27 07:14:36;;;;;;;6.32;2.90;;;;;;;;;;4961193;28;20051;-79
2020/12/27 07:17:05;;;;;;;5.78;2.83;;;;;;;;;;4965624;28;20051;-79
2020/12/27 07:19:38;;;;;;;7.53;2.50;;;;;;;;;;4965344;28;20055;-79
2020/12/27 07:22:11;;;;;;;7.80;2.75;;;;;;;;;;4965759;28;20094;-79
2020/12/27 07:25:29;;;;;;;7.15;3.38;;;;;;;;;;4963535;28;20065;-79
2020/12/27 07:27:41;;;;;;;4.47;2.35;;;;;;;;;;4962552;28;20054;-79
2020/12/27 07:30:19;;;;;;;7.28;3.15;;;;;;;;;;4966994;28;20439;-78
2020/12/27 07:32:52;;;;;;;5.00;3.13;;;;;;;;;;4961462;28;20087;-79
2020/12/27 07:35:23;;;;;;;8.10;2.90;;;;;;;;;;4963323;28;20114;-79
2020/12/27 07:37:59;;;;;;;8.48;3.63;;;;;;;;;;4961815;28;20078;-79
2020/12/27 07:40:31;;;;;;;6.75;3.08;;;;;;;;;;4980197;28;20081;-77
2020/12/27 07:42:58;;;;;;;5.75;3.05;;;;;;;;;;4961695;28;20065;-78
2020/12/27 07:45:25;;;;;;;6.55;3.08;;;;;;;;;;4961825;28;20063;-78
2020/12/27 07:47:52;;;;;;;7.28;3.53;;;;;;;;;;4955709;28;20062;-79
2020/12/27 07:50:22;;;;;;;5.53;2.90;;;;;;;;;;4962084;28;20103;-79
2020/12/27 07:52:50;;;;;;;6.40;3.20;;;;;;;;;;4957724;28;20876;-78
2020/12/27 07:55:21;;;;;;;9.43;3.50;;;;;;;;;;4961350;28;20074;-78
2020/12/27 07:57:47;;;;;;;7.05;3.28;;;;;;;;;;4960251;28;20101;-78
2020/12/27 08:00:14;;;;;;;6.65;3.42;;;;;;;;;;4958147;28;20061;-78
2020/12/27 08:02:44;;;;;;;7.53;3.25;;;;;;;;;;4958217;28;20650;-78
2020/12/27 08:05:12;;;;;;;8.48;3.47;;;;;;;;;;4962707;28;20681;-78
2020/12/27 08:07:42;;;;;;;6.32;3.47;;;;;;;;;;4960299;28;20131;-78
2020/12/27 08:10:18;;;;;;;13.80;3.70;;;;;;;;;;4959302;28;20141;-79
2020/12/27 08:13:01;;;;;;;9.23;3.53;;;;;;;;;;4960041;28;20587;-78
2020/12/27 08:15:29;;;;;;;7.53;3.53;;;;;;;;;;4960393;28;20047;-78
2020/12/27 08:17:56;;;;;;;10.02;3.70;;;;;;;;;;4959493;28;20070;-78
2020/12/27 08:20:24;;;;;;;8.02;3.25;;;;;;;;;;4961890;28;20559;-78
2020/12/27 08:23:01;;;;;;;10.65;3.78;;;;;;;;;;4956621;28;20976;-79
2020/12/27 08:25:28;;;;;;;12.68;3.85;;;;;;;;;;4960420;28;20802;-79
2020/12/27 08:27:59;;;;;;;8.70;3.78;;;;;;;;;;4954838;28;20055;-79
2020/12/27 08:30:26;;;;;;;9.55;3.85;;;;;;;;;;4972959;28;20101;-78
2020/12/27 08:33:07;;;;;;;7.78;3.15;;;;;;;;;;4962395;28;20047;-78
2020/12/27 08:35:34;;;;;;;6.97;3.75;;;;;;;;;;4961286;28;20062;-78
2020/12/27 08:38:32;;;;;;;8.25;3.67;;;;;;;;;;4961148;28;20154;-78
2020/12/27 08:41:06;;;;;;;8.00;3.83;;;;;;;;;;4942176;28;20142;-78
2020/12/27 08:43:53;;;;;;;9.95;3.67;;;;;;;;;;4958139;28;20066;-78
2020/12/27 08:46:21;;;;;;;9.02;4.20;;;;;;;;;;4954586;28;20953;-78
2020/12/27 08:49:02;;;;;;;10.07;3.70;;;;;;;;;;4953610;28;20039;-78
2020/12/27 08:51:47;;;;;;;12.32;3.80;;;;;;;;;;4955955;28;20770;-78
2020/12/27 08:54:15;;;;;;;9.82;5.15;;;;;;;;;;4953136;28;20070;-79
2020/12/27 08:59:16;;;;;;;9.68;3.88;;;;;;;;;;4915034;28;20490;-78
2020/12/27 09:01:42;;;;;;;6.88;3.78;;;;;;;;;;4921790;29;20040;-78
2020/12/27 09:04:22;;;;;;;10.57;3.58;;;;;;;;;;4933893;28;20055;-79
2020/12/27 09:06:53;;;;;;;9.32;4.32;;;;;;;;;;4938573;28;20139;-78
2020/12/27 09:09:20;;;;;;;8.45;3.88;;;;;;;;;;4931426;28;20135;-78
2020/12/27 09:11:47;;;;;;;11.80;4.35;;;;;;;;;;4921577;29;20134;-79
2020/12/27 09:14:37;;;;;;;10.75;3.97;;;;;;;;;;4954895;23;20078;-78
2020/12/27 09:17:07;;;;;;;6.63;3.45;;;;;;;;;;4968827;28;20531;-77
2020/12/27 09:19:35;;;;;;;8.30;4.18;;;;;;;;;;4951651;28;20699;-78
2020/12/27 09:22:12;;;;;;;14.45;4.00;;;;;;;;;;4962123;28;20059;-77
2020/12/27 09:24:41;;;;;;;10.02;4.32;;;;;;;;;;4959311;28;20488;-80
2020/12/27 09:27:09;;;;;;;9.70;4.10;;;;;;;;;;4973853;28;20401;-78
2020/12/27 09:29:38;;;;;;;12.00;4.15;;;;;;;;;;4962572;28;20140;-79
2020/12/27 09:32:11;;;;;;;9.35;4.22;;;;;;;;;;4966708;28;20059;-84
2020/12/27 09:34:41;;;;;;;11.07;4.70;;;;;;;;;;4957810;28;20074;-84
2020/12/27 09:37:11;;;;;;;10.70;4.75;;;;;;;;;;4957244;29;20098;-82
2020/12/27 09:39:38;;;;;;;7.68;4.43;;;;;;;;;;4957645;28;20051;-80
2020/12/27 09:42:05;;;;;;;8.68;4.35;;;;;;;;;;4964942;28;20637;-83
2020/12/27 09:44:31;;;;;;;11.55;4.57;;;;;;;;;;4960818;28;20536;-83
2020/12/27 09:47:00;;;;;;;7.32;3.80;;;;;;;;;;4959756;28;20083;-84
2020/12/27 09:49:34;;;;;;;12.60;4.25;;;;;;;;;;4961677;28;20055;-82
2020/12/27 09:52:15;;;;;;;7.00;3.75;;;;;;;;;;4961255;28;20579;-85
2020/12/27 09:54:45;;;;;;;8.38;4.28;;;;;;;;;;4958231;28;20110;-85
2020/12/27 09:57:31;;;;;;;10.90;4.07;;;;;;;;;;4958534;28;20134;-82
2020/12/27 09:59:59;;;;;;;8.73;4.35;;;;;;;;;;4960955;28;20070;-81
2020/12/27 10:02:28;;;;;;;10.50;3.83;;;;;;;;;;4977212;28;20126;-79
2020/12/27 10:04:55;;;;;;;6.70;3.65;;;;;;;;;;4966639;28;20058;-82
2020/12/27 10:07:27;;;;;;;11.70;4.30;;;;;;;;;;4974543;28;20377;-80
2020/12/27 10:09:53;;;;;;;9.65;3.92;;;;;;;;;;4970831;28;20066;-84
2020/12/27 10:12:23;;;;;;;8.82;4.18;;;;;;;;;;4969552;28;20047;-84
2020/12/27 10:14:49;;;;;;;10.20;3.92;;;;;;;;;;4978663;28;20110;-84
2020/12/27 10:17:16;;;;;;;9.68;3.38;;;;;;;;;;4978285;28;20046;-83
2020/12/27 10:19:44;;;;;;;7.72;3.13;;;;;;;;;;4969105;28;20078;-82
2020/12/27 10:22:11;;;;;;;7.18;3.05;;;;;;;;;;4964038;28;20071;-83
2020/12/27 10:24:38;;;;;;;7.20;3.45;;;;;;;;;;4962544;28;20504;-82
2020/12/27 10:27:05;;;;;;;10.40;3.78;;;;;;;;;;4958550;29;20086;-83
2020/12/27 10:29:40;;;;;;;13.13;4.22;;;;;;;;;;4962844;28;20134;-82
2020/12/27 10:32:07;;;;;;;12.27;4.38;;;;;;;;;;4973034;28;20051;-84
2020/12/27 10:34:37;;;;;;;7.93;3.17;;;;;;;;;;4959125;28;20432;-86
2020/12/27 10:37:04;;;;;;;10.13;3.28;;;;;;;;;;4969436;28;20500;-83
2020/12/27 10:39:35;;;;;;;6.18;3.53;;;;;;;;;;4966495;28;20042;-82
2020/12/27 10:42:02;;;;;;;10.13;3.20;;;;;;;;;;4959375;28;20709;-83
2020/12/27 10:44:30;;;;;;;11.82;3.70;;;;;;;;;;4958842;28;20055;-84
2020/12/27 10:46:56;;;;;;;6.53;3.35;;;;;;;;;;4963406;28;20055;-83
2020/12/27 10:49:24;;;;;;;5.72;3.20;;;;;;;;;;4976946;28;20512;-85
2020/12/27 10:51:51;;;;;;;7.35;2.75;;;;;;;;;;4976862;28;20059;-86
2020/12/27 10:54:18;;;;;;;5.13;2.83;;;;;;;;;;4975130;28;20142;-85
2020/12/27 10:56:49;;;;;;;6.18;3.40;;;;;;;;;;4966570;28;20054;-80
2020/12/27 10:59:15;;;;;;;8.65;2.72;;;;;;;;;;4968248;28;20074;-80
2020/12/27 11:01:47;;;;;;;8.50;2.92;;;;;;;;;;4962206;28;20078;-82
2020/12/27 11:04:15;;;;;;;5.15;2.53;;;;;;;;;;4972505;28;20043;-79
2020/12/27 11:06:42;;;;;;;6.43;2.83;;;;;;;;;;4972658;28;20135;-79
2020/12/27 11:09:11;;;;;;;6.50;2.60;;;;;;;;;;4959828;28;20054;-82
2020/12/27 11:11:40;;;;;;;8.00;3.00;;;;;;;;;;4955377;28;20080;-82
2020/12/27 11:14:07;;;;;;;4.72;2.72;;;;;;;;;;4967694;28;20104;-78
2020/12/27 11:16:34;;;;;;;5.13;2.63;;;;;;;;;;4967822;28;20133;-75
2020/12/27 11:19:01;;;;;;;5.15;2.40;;;;;;;;;;4953032;28;20051;-75
2020/12/27 11:21:28;;;;;;;4.90;2.70;;;;;;;;;;4959414;28;20082;-76
2020/12/27 11:23:55;;;;;;;6.43;2.55;;;;;;;;;;4960616;28;20074;-77
2020/12/27 11:26:21;;;;;;;5.78;2.45;;;;;;;;;;4968513;28;20484;-77
2020/12/27 11:28:48;;;;;;;6.00;2.75;;;;;;;;;;4957584;28;20091;-77
2020/12/27 11:31:18;;;;;;;8.45;2.38;;;;;;;;;;4949413;28;20058;-75
2020/12/27 11:33:48;;;;;;;9.13;2.25;;;;;;;;;;4954635;28;20050;-73
2020/12/27 11:36:15;;;;;;;10.18;3.00;;;;;;;;;;4958990;28;20058;-75
2020/12/27 11:38:42;;;;;;;6.13;2.42;;;;;;;;;;4964546;28;20055;-76
2020/12/27 11:41:13;;;;;;;7.15;2.60;;;;;;;;;;4957631;28;20452;-73
2020/12/27 11:43:40;;;;;;;7.88;3.03;;;;;;;;;;4959747;28;20137;-74
2020/12/27 11:46:07;;;;;;;7.88;2.63;;;;;;;;;;4960033;28;20097;-73
2020/12/27 11:48:34;;;;;;;11.65;2.97;;;;;;;;;;4966170;28;20607;-73
2020/12/27 11:51:02;;;;;;;4.85;2.13;;;;;;;;;;4965164;28;20549;-80
2020/12/27 11:53:29;;;;;;;5.82;2.22;;;;;;;;;;4966684;28;20660;-80
2020/12/27 11:55:56;;;;;;;6.15;2.42;;;;;;;;;;4954405;28;20086;-80
2020/12/27 11:58:23;;;;;;;6.03;2.15;;;;;;;;;;4953690;29;20485;-80
2020/12/27 12:00:50;;;;;;;4.28;2.40;;;;;;;;;;4960226;28;20146;-80
2020/12/27 12:03:18;;;;;;;6.90;2.10;;;;;;;;;;4959092;28;20207;-80
2020/12/27 12:05:46;;;;;;;8.50;3.38;;;;;;;;;;4963264;28;20140;-79
2020/12/27 12:08:15;;;;;;;9.60;2.30;;;;;;;;;;4961691;28;20446;-80
2020/12/27 12:10:43;;;;;;;4.90;2.28;;;;;;;;;;4957809;28;20059;-77
2020/12/27 12:13:09;;;;;;;5.88;2.38;;;;;;;;;;4968541;28;20194;-80
2020/12/27 12:15:36;;;;;;;6.35;2.25;;;;;;;;;;4971261;28;20469;-78
2020/12/27 12:18:03;;;;;;;7.85;2.53;;;;;;;;;;4971685;28;20051;-84
2020/12/27 12:20:45;;;;;;;4.38;1.98;;;;;;;;;;4969686;28;20134;-80
2020/12/27 12:23:12;;;;;;;3.40;1.95;;;;;;;;;;4957766;28;20043;-77
2020/12/27 12:25:40;;;;;;;9.00;2.20;;;;;;;;;;4964013;28;20145;-78
2020/12/27 12:28:07;;;;;;;6.75;2.22;;;;;;;;;;4971137;28;20061;-78
2020/12/27 12:30:35;;;;;;;4.97;2.40;;;;;;;;;;4963819;28;20062;-79
2020/12/27 12:33:03;;;;;;;4.70;2.10;;;;;;;;;;4949919;29;20106;-77
2020/12/27 12:35:30;;;;;;;12.05;2.40;;;;;;;;;;4950860;28;20545;-77
2020/12/27 12:37:58;;;;;;;9.73;2.70;;;;;;;;;;4956967;28;20121;-78
2020/12/27 12:40:25;;;;;;;6.40;2.70;;;;;;;;;;4955705;28;21064;-79
2020/12/27 12:42:52;;;;;;;4.38;2.25;;;;;;;;;;4959606;28;20134;-79
2020/12/27 12:45:19;;;;;;;4.20;1.98;;;;;;;;;;4954796;28;20055;-74
2020/12/27 12:47:46;;;;;;;5.15;2.47;;;;;;;;;;4956258;28;20134;-81
2020/12/27 12:50:14;;;;;;;5.18;2.30;;;;;;;;;;4959873;28;20109;-79
2020/12/27 12:52:43;;;;;;;9.23;2.50;;;;;;;;;;4964502;28;20091;-80
2020/12/27 12:55:15;;;;;;;5.55;2.60;;;;;;;;;;4956440;29;20479;-81
2020/12/27 12:57:46;;;;;;;4.38;2.28;;;;;;;;;;4967264;28;20078;-80
2020/12/27 13:00:13;;;;;;;7.22;2.60;;;;;;;;;;4958344;28;20055;-77
2020/12/27 13:02:40;;;;;;;8.35;2.05;;;;;;;;;;4954463;29;20082;-78
2020/12/27 13:05:06;;;;;;;6.93;2.42;;;;;;;;;;4958114;28;20153;-76
2020/12/27 13:07:36;;;;;;;7.20;2.45;;;;;;;;;;4961636;28;20503;-78
2020/12/27 13:10:04;;;;;;;5.43;2.65;;;;;;;;;;4965194;28;20404;-76
2020/12/27 13:12:57;;;;;;;8.52;2.42;;;;;;;;;;4965292;28;20408;-78
2020/12/27 13:15:24;;;;;;;4.40;2.65;;;;;;;;;;4982599;28;20073;-78
2020/12/27 13:17:51;;;;;;;11.00;2.92;;;;;;;;;;4958131;28;20047;-79
2020/12/27 13:20:18;;;;;;;5.25;2.53;;;;;;;;;;4953911;29;20134;-77
2020/12/27 13:22:45;;;;;;;6.00;3.20;;;;;;;;;;4952990;29;20086;-76
2020/12/27 13:25:12;;;;;;;5.57;2.40;;;;;;;;;;4954205;29;20071;-78
2020/12/27 13:27:40;;;;;;;5.90;2.38;;;;;;;;;;4962146;28;20118;-78
2020/12/27 13:30:16;;;;;;;6.30;2.60;;;;;;;;;;4967951;28;20055;-77
2020/12/27 13:32:43;;;;;;;5.80;2.88;;;;;;;;;;4968721;28;20121;-77
2020/12/27 13:35:10;;;;;;;7.15;2.88;;;;;;;;;;4963797;28;20643;-77
2020/12/27 13:37:37;;;;;;;5.75;2.78;;;;;;;;;;4954240;28;20348;-75
2020/12/27 13:40:05;;;;;;;8.38;2.75;;;;;;;;;;4956417;28;20062;-79
2020/12/27 13:42:32;;;;;;;6.50;2.53;;;;;;;;;;4956049;28;20070;-79
2020/12/27 13:45:02;;;;;;;10.05;2.60;;;;;;;;;;4968086;28;20463;-87
2020/12/27 13:47:29;;;;;;;4.80;2.63;;;;;;;;;;4973110;28;20050;-80
2020/12/27 13:49:55;;;;;;;12.30;3.17;;;;;;;;;;4961344;28;20150;-77
2020/12/27 13:52:22;;;;;;;5.35;2.65;;;;;;;;;;4954573;28;20098;-77
2020/12/27 13:54:49;;;;;;;7.85;2.38;;;;;;;;;;4971344;28;20135;-78
2020/12/27 13:57:15;;;;;;;5.75;2.42;;;;;;;;;;4957517;28;20211;-78
2020/12/27 13:59:44;;;;;;;8.07;2.72;;;;;;;;;;4954020;28;20070;-79
2020/12/27 14:02:28;;;;;;;9.05;2.60;;;;;;;;;;4971587;28;20062;-79
2020/12/27 14:04:55;;;;;;;4.45;2.45;;;;;;;;;;4961090;28;20054;-77
2020/12/27 14:07:22;;;;;;;5.43;2.63;;;;;;;;;;4967058;28;20051;-76
2020/12/27 14:09:48;;;;;;;3.88;2.05;;;;;;;;;;4967154;28;20150;-77
2020/12/27 14:12:15;;;;;;;5.32;2.33;;;;;;;;;;4966801;28;20158;-77
2020/12/27 14:14:41;;;;;;;5.38;2.35;;;;;;;;;;4949678;28;20096;-76
2020/12/27 14:17:08;;;;;;;4.30;2.40;;;;;;;;;;4951736;29;20059;-76
2020/12/27 14:19:35;;;;;;;3.70;2.10;;;;;;;;;;4953066;28;20560;-76
2020/12/27 14:22:02;;;;;;;3.80;2.25;;;;;;;;;;4952760;28;20115;-75
2020/12/27 14:24:28;;;;;;;8.70;2.42;;;;;;;;;;4967166;28;20085;-77
2020/12/27 14:26:55;;;;;;;5.03;2.35;;;;;;;;;;4968521;28;20046;-77
2020/12/27 14:29:22;;;;;;;14.65;2.65;;;;;;;;;;4970852;28;20547;-78
2020/12/27 14:31:48;;;;;;;4.43;2.55;;;;;;;;;;4970235;28;20138;-77
2020/12/27 14:34:15;;;;;;;3.40;2.08;;;;;;;;;;4962840;28;20070;-77
2020/12/27 14:36:42;;;;;;;4.70;2.50;;;;;;;;;;4972216;28;20495;-77
2020/12/27 14:39:09;;;;;;;3.25;2.10;;;;;;;;;;4970533;28;20670;-77
2020/12/27 14:41:36;;;;;;;4.90;2.30;;;;;;;;;;4970899;28;20678;-76
2020/12/27 14:44:03;;;;;;;5.20;2.65;;;;;;;;;;4959925;28;20159;-76
2020/12/27 14:46:29;;;;;;;5.55;2.67;;;;;;;;;;4952993;28;20141;-77
2020/12/27 14:48:56;;;;;;;7.20;2.38;;;;;;;;;;4951860;29;20055;-77
2020/12/27 14:51:23;;;;;;;4.65;2.28;;;;;;;;;;4952963;28;20079;-76
2020/12/27 14:53:50;;;;;;;5.57;2.50;;;;;;;;;;4959978;28;20046;-77
2020/12/27 14:56:19;;;;;;;4.40;2.35;;;;;;;;;;4970463;28;20085;-77
2020/12/27 14:58:46;;;;;;;7.47;2.53;;;;;;;;;;4972135;28;20054;-77
2020/12/27 15:01:15;;;;;;;3.70;2.00;;;;;;;;;;4966130;28;20054;-77